Panacea — ZGDY9 — position and weather

sailwx.info

Track history (hours):
 
Tides and Currents Weather Stations Pressure Air Temp Water Temp Dewpoint Dewpoint Depression Visibility Wind Speed Wind Dir Waves Ship Positions

Panacea

Last reported at 2017-Nov-06 02:30 UTC. Time now 2017-Nov-24 22:00 UTC.
Position N 28°42' W 015°34'.
Warning: this ship's position is 18 days out of date.

Length 28 m; draft 4.2 m.

Type: Ship. MMSI: 319066600.

Date/timePositionNaut miles runAvg speedWind from/ knotsBaromVisibWave heightAir tempDewpointWater temp
2017-Nov-06 02:30N 28°42' W 015°34'3 6.8
2017-Nov-06 02:00N 28°43' W 015°30'4 7.0
2017-Nov-06 01:30N 28°44' W 015°27'4 7.8
2017-Nov-06 01:01N 28°46' W 015°23'4 7.7
2017-Nov-06 00:30N 28°48' W 015°19'4 7.7
2017-Nov-05 23:59N 28°50' W 015°15'3 7.4
2017-Nov-05 23:30N 28°52' W 015°12'4 8.2
2017-Nov-05 22:58N 28°56' W 015°09'  
2017-Oct-31 17:38N 37°21' W 001°01'1 8.5
2017-Oct-31 17:30N 37°21' W 000°60'4 8.6
2017-Oct-31 17:00N 37°24' W 000°55'4 7.5
2017-Oct-31 16:30N 37°26' W 000°52'4 8.4
2017-Oct-31 16:00N 37°29' W 000°47'4 7.2
2017-Oct-31 15:30N 37°31' W 000°44'5 8.5
2017-Oct-31 14:57N 37°34' W 000°40'3 7.0
2017-Oct-31 14:30N 37°36' W 000°37'4 8.1
2017-Oct-31 14:00N 37°38' W 000°32'4 8.3
2017-Oct-31 13:30N 37°40' W 000°28'4 8.1
2017-Oct-31 12:59N 37°42' W 000°23'159 7.6
2017-Oct-30 16:08N 39°17' E 002°21'1 3.8
2017-Oct-30 15:57N 39°17' E 002°21'4 9.5
2017-Oct-30 15:29N 39°21' E 002°25'3 6.3
2017-Oct-30 14:59N 39°23' E 002°28'8 8.1
2017-Oct-30 14:00N 39°29' E 002°35'4 8.0
2017-Oct-30 13:30N 39°32' E 002°38'2 3.4
2017-Oct-30 13:00N 39°34' E 002°38'0 0.0
2017-Oct-30 12:30N 39°34' E 002°38'0 0.0
2017-Oct-30 12:01N 39°34' E 002°38'0 0.0
2017-Oct-30 11:30N 39°34' E 002°38'0 0.0
2017-Oct-30 11:01N 39°34' E 002°38'0 0.0
2017-Oct-30 10:30N 39°34' E 002°38'0 0.0
2017-Oct-30 10:00N 39°34' E 002°38'0 0.0
2017-Oct-30 09:30N 39°34' E 002°38'0 0.0
2017-Oct-30 09:00N 39°34' E 002°38'0 0.0
2017-Oct-30 08:30N 39°34' E 002°38'0 0.0
2017-Oct-30 08:00N 39°34' E 002°38'0 0.0
2017-Oct-30 07:30N 39°34' E 002°38'0 0.0
2017-Oct-30 07:00N 39°34' E 002°38'0 0.0
2017-Oct-30 06:30N 39°34' E 002°38'0 0.0
2017-Oct-30 06:00N 39°34' E 002°38'0 0.0
2017-Oct-30 05:30N 39°34' E 002°38'0 0.0
2017-Oct-30 05:00N 39°34' E 002°38'0 0.0
2017-Oct-30 04:30N 39°34' E 002°38'0 0.0
2017-Oct-30 04:00N 39°34' E 002°38'0 0.0
2017-Oct-30 03:30N 39°34' E 002°38'0 0.0
2017-Oct-30 03:00N 39°34' E 002°38'0 0.0
2017-Oct-30 02:30N 39°34' E 002°38'0 0.0
2017-Oct-30 02:00N 39°34' E 002°38'0 0.0
2017-Oct-30 01:31N 39°34' E 002°38'0 0.0
2017-Oct-30 01:00N 39°34' E 002°38'0 0.0
2017-Oct-30 00:30N 39°34' E 002°38'0 0.0
2017-Oct-30 00:00N 39°34' E 002°38'0 0.0
2017-Oct-29 23:30N 39°34' E 002°38'0 0.0
2017-Oct-29 23:01N 39°34' E 002°38'0 0.0
2017-Oct-29 22:30N 39°34' E 002°38'0 0.0
2017-Oct-29 22:00N 39°34' E 002°38'0 0.0
2017-Oct-29 21:30N 39°34' E 002°38'0 0.0
2017-Oct-29 21:00N 39°34' E 002°38'0 0.0
2017-Oct-29 20:30N 39°34' E 002°38'0 0.0
2017-Oct-29 20:00N 39°34' E 002°38'0 0.0
2017-Oct-29 19:30N 39°34' E 002°38'0 0.0
2017-Oct-29 19:00N 39°34' E 002°38'0 0.0
2017-Oct-29 18:30N 39°34' E 002°38'0 0.0
2017-Oct-29 18:01N 39°34' E 002°38'0 0.0
2017-Oct-29 17:30N 39°34' E 002°38'0 0.0
2017-Oct-29 17:01N 39°34' E 002°38'0 0.0
2017-Oct-29 16:30N 39°34' E 002°38'0 0.0
2017-Oct-29 16:00N 39°34' E 002°38'0 0.0
2017-Oct-29 15:31N 39°34' E 002°38'0 0.0
2017-Oct-29 15:00N 39°34' E 002°38'0 0.0
2017-Oct-29 14:31N 39°34' E 002°38'0 0.0
2017-Oct-29 14:00N 39°34' E 002°38'0 0.0
2017-Oct-29 13:30N 39°34' E 002°38'0 0.0
2017-Oct-29 13:00N 39°34' E 002°38'0 0.0
2017-Oct-29 12:30N 39°34' E 002°38'0 0.0
2017-Oct-29 12:00N 39°34' E 002°38'0 0.0
2017-Oct-29 11:30N 39°34' E 002°38'0 0.0
2017-Oct-29 11:00N 39°34' E 002°38'0 0.0
2017-Oct-29 10:30N 39°34' E 002°38'0 0.0
2017-Oct-29 10:00N 39°34' E 002°38'0 0.0
2017-Oct-29 09:31N 39°34' E 002°38'0 0.0
2017-Oct-29 09:00N 39°34' E 002°38'0 0.0
2017-Oct-29 08:30N 39°34' E 002°38'0 0.0
2017-Oct-29 08:00N 39°34' E 002°38'0 0.0
2017-Oct-29 07:30N 39°34' E 002°38'0 0.0
2017-Oct-29 07:00N 39°34' E 002°38'0 0.0
2017-Oct-29 06:30N 39°34' E 002°38'0 0.0
2017-Oct-29 06:00N 39°34' E 002°38'0 0.0
2017-Oct-29 05:31N 39°34' E 002°38'0 0.0
2017-Oct-29 05:00N 39°34' E 002°38'0 0.0
2017-Oct-29 04:30N 39°34' E 002°38'0 0.0
2017-Oct-29 04:00N 39°34' E 002°38'0 0.0
2017-Oct-28 19:00N 39°34' E 002°38'0 0.0
2017-Oct-28 18:30N 39°34' E 002°38'0 0.0
2017-Oct-28 18:00N 39°34' E 002°38'0 0.0
2017-Oct-28 17:30N 39°34' E 002°38'0 0.0
2017-Oct-28 17:00N 39°34' E 002°38'0 0.0
2017-Oct-28 16:30N 39°34' E 002°38'0 0.0
2017-Oct-28 16:00N 39°34' E 002°38'0 0.0
2017-Oct-28 15:30N 39°34' E 002°38'0 0.0
2017-Oct-28 15:00N 39°34' E 002°38'0 0.0
2017-Oct-28 14:31N 39°34' E 002°38'0 0.0
2017-Oct-28 14:01N 39°34' E 002°38'0 0.0
2017-Oct-28 13:30N 39°34' E 002°38'0 0.0
2017-Oct-28 13:01N 39°34' E 002°38'0 0.0
2017-Oct-28 12:25N 39°34' E 002°38'0 0.0
2017-Oct-28 12:00N 39°34' E 002°38'0 0.0
2017-Oct-28 11:30N 39°34' E 002°38'0 0.0
2017-Oct-28 11:00N 39°34' E 002°38'0 0.0
2017-Oct-28 10:30N 39°34' E 002°38'0 0.0
2017-Oct-28 10:00N 39°34' E 002°38'0 0.0
2017-Oct-28 09:30N 39°34' E 002°38'0 0.0
2017-Oct-28 09:00N 39°34' E 002°38'0 0.0
2017-Oct-28 08:30N 39°34' E 002°38'0 0.0
2017-Oct-28 08:00N 39°34' E 002°38'0 0.0
2017-Oct-28 07:30N 39°34' E 002°38'0 0.0
2017-Oct-28 07:00N 39°34' E 002°38'0 0.0
2017-Oct-28 06:30N 39°34' E 002°38'0 0.0
2017-Oct-28 06:00N 39°34' E 002°38'0 0.0
2017-Oct-28 05:30N 39°34' E 002°38'0 0.0
2017-Oct-28 05:00N 39°34' E 002°38'0 0.0
2017-Oct-28 04:30N 39°34' E 002°38'0 0.0
2017-Oct-28 04:01N 39°34' E 002°38'0 0.0
2017-Oct-28 03:30N 39°34' E 002°38'0 0.0
2017-Oct-28 03:00N 39°34' E 002°38'0 0.0
2017-Oct-28 02:30N 39°34' E 002°38'0 0.0
2017-Oct-28 02:00N 39°34' E 002°38'0 0.0
2017-Oct-28 01:30N 39°34' E 002°38'0 0.0
2017-Oct-28 01:00N 39°34' E 002°38'0 0.0
2017-Oct-28 00:31N 39°34' E 002°38'0 0.0
2017-Oct-28 00:00N 39°34' E 002°38'0 0.0
2017-Oct-27 23:31N 39°34' E 002°38'0 0.0
2017-Oct-27 23:00N 39°34' E 002°38'0 0.0
2017-Oct-27 22:30N 39°34' E 002°38'0 0.0
2017-Oct-27 22:00N 39°34' E 002°38'0 0.0
2017-Oct-27 21:30N 39°34' E 002°38'0 0.0
2017-Oct-27 21:00N 39°34' E 002°38'0 0.0
2017-Oct-27 20:30N 39°34' E 002°38'0 0.0
2017-Oct-27 20:00N 39°34' E 002°38'0 0.0
2017-Oct-27 19:30N 39°34' E 002°38'0 0.0
2017-Oct-27 19:00N 39°34' E 002°38'0 0.0
2017-Oct-27 18:30N 39°34' E 002°38'0 0.0
2017-Oct-27 18:00N 39°34' E 002°38'0 0.0
2017-Oct-27 17:31N 39°34' E 002°38'0 0.0
2017-Oct-27 17:00N 39°34' E 002°38'0 0.0
2017-Oct-27 16:30N 39°34' E 002°38'0 0.0
2017-Oct-27 16:00N 39°34' E 002°38'0 0.0
2017-Oct-27 15:30N 39°34' E 002°38'0 0.0
2017-Oct-27 15:00N 39°34' E 002°38'0 0.0
2017-Oct-27 14:30N 39°34' E 002°38'0 0.0
2017-Oct-27 14:00N 39°34' E 002°38'0 0.0
2017-Oct-27 13:30N 39°34' E 002°38'0 0.0
2017-Oct-27 13:00N 39°34' E 002°38'0 0.0
2017-Oct-27 12:30N 39°34' E 002°38'0 0.0
2017-Oct-27 12:00N 39°34' E 002°38'0 0.0
2017-Oct-27 11:30N 39°34' E 002°38'0 0.0
2017-Oct-27 11:00N 39°34' E 002°38'0 0.0
2017-Oct-27 10:31N 39°34' E 002°38'0 0.0
2017-Oct-27 10:00N 39°34' E 002°38'0 0.0
2017-Oct-27 09:30N 39°34' E 002°38'0 0.0
2017-Oct-27 09:00N 39°34' E 002°38'0 0.0
2017-Oct-27 08:30N 39°34' E 002°38'0 0.0
2017-Oct-27 08:00N 39°34' E 002°38'0 0.0
2017-Oct-27 07:30N 39°34' E 002°38'0 0.0
2017-Oct-27 07:00N 39°34' E 002°38'0 0.0
2017-Oct-27 06:30N 39°34' E 002°38'0 0.0
2017-Oct-27 06:00N 39°34' E 002°38'0 0.0
2017-Oct-27 05:30N 39°34' E 002°38'0 0.0
2017-Oct-27 05:00N 39°34' E 002°38'0 0.0
2017-Oct-27 04:30N 39°34' E 002°38'0 0.0
2017-Oct-27 04:00N 39°34' E 002°38'0 0.0
2017-Oct-27 03:30N 39°34' E 002°38'0 0.0
2017-Oct-27 03:00N 39°34' E 002°38'0 0.0
2017-Oct-27 02:30N 39°34' E 002°38'  
Track history (hours):
 
Tides and Currents Weather Stations Pressure Air Temp Water Temp Dewpoint Dewpoint Depression Visibility Wind Speed Wind Dir Waves Ship Positions

Panacea

Last reported at 2017-Nov-06 02:30 UTC. Time now 2017-Nov-24 22:00 UTC.
Position N 28°42' W 015°34'.
Warning: this ship's position is 18 days out of date.

Length 28 m; draft 4.2 m.

Type: Ship. MMSI: 319066600.

Date/timePositionNaut miles runAvg speedWind from/ knotsBaromVisibWave heightAir tempDewpointWater temp
2017-Nov-06 02:30N 28°42' W 015°34'3 6.8
2017-Nov-06 02:00N 28°43' W 015°30'4 7.0
2017-Nov-06 01:30N 28°44' W 015°27'4 7.8
2017-Nov-06 01:01N 28°46' W 015°23'4 7.7
2017-Nov-06 00:30N 28°48' W 015°19'4 7.7
2017-Nov-05 23:59N 28°50' W 015°15'3 7.4
2017-Nov-05 23:30N 28°52' W 015°12'4 8.2
2017-Nov-05 22:58N 28°56' W 015°09'  
2017-Oct-31 17:38N 37°21' W 001°01'1 8.5
2017-Oct-31 17:30N 37°21' W 000°60'4 8.6
2017-Oct-31 17:00N 37°24' W 000°55'4 7.5
2017-Oct-31 16:30N 37°26' W 000°52'4 8.4
2017-Oct-31 16:00N 37°29' W 000°47'4 7.2
2017-Oct-31 15:30N 37°31' W 000°44'5 8.5
2017-Oct-31 14:57N 37°34' W 000°40'3 7.0
2017-Oct-31 14:30N 37°36' W 000°37'4 8.1
2017-Oct-31 14:00N 37°38' W 000°32'4 8.3
2017-Oct-31 13:30N 37°40' W 000°28'4 8.1
2017-Oct-31 12:59N 37°42' W 000°23'159 7.6
2017-Oct-30 16:08N 39°17' E 002°21'1 3.8
2017-Oct-30 15:57N 39°17' E 002°21'4 9.5
2017-Oct-30 15:29N 39°21' E 002°25'3 6.3
2017-Oct-30 14:59N 39°23' E 002°28'8 8.1
2017-Oct-30 14:00N 39°29' E 002°35'4 8.0
2017-Oct-30 13:30N 39°32' E 002°38'2 3.4
2017-Oct-30 13:00N 39°34' E 002°38'0 0.0
2017-Oct-30 12:30N 39°34' E 002°38'0 0.0
2017-Oct-30 12:01N 39°34' E 002°38'0 0.0
2017-Oct-30 11:30N 39°34' E 002°38'0 0.0
2017-Oct-30 11:01N 39°34' E 002°38'0 0.0
2017-Oct-30 10:30N 39°34' E 002°38'0 0.0
2017-Oct-30 10:00N 39°34' E 002°38'0 0.0
2017-Oct-30 09:30N 39°34' E 002°38'0 0.0
2017-Oct-30 09:00N 39°34' E 002°38'0 0.0
2017-Oct-30 08:30N 39°34' E 002°38'0 0.0
2017-Oct-30 08:00N 39°34' E 002°38'0 0.0
2017-Oct-30 07:30N 39°34' E 002°38'0 0.0
2017-Oct-30 07:00N 39°34' E 002°38'0 0.0
2017-Oct-30 06:30N 39°34' E 002°38'0 0.0
2017-Oct-30 06:00N 39°34' E 002°38'0 0.0
2017-Oct-30 05:30N 39°34' E 002°38'0 0.0
2017-Oct-30 05:00N 39°34' E 002°38'0 0.0
2017-Oct-30 04:30N 39°34' E 002°38'0 0.0
2017-Oct-30 04:00N 39°34' E 002°38'0 0.0
2017-Oct-30 03:30N 39°34' E 002°38'0 0.0
2017-Oct-30 03:00N 39°34' E 002°38'0 0.0
2017-Oct-30 02:30N 39°34' E 002°38'0 0.0
2017-Oct-30 02:00N 39°34' E 002°38'0 0.0
2017-Oct-30 01:31N 39°34' E 002°38'0 0.0
2017-Oct-30 01:00N 39°34' E 002°38'0 0.0
2017-Oct-30 00:30N 39°34' E 002°38'0 0.0
2017-Oct-30 00:00N 39°34' E 002°38'0 0.0
2017-Oct-29 23:30N 39°34' E 002°38'0 0.0
2017-Oct-29 23:01N 39°34' E 002°38'0 0.0
2017-Oct-29 22:30N 39°34' E 002°38'0 0.0
2017-Oct-29 22:00N 39°34' E 002°38'0 0.0
2017-Oct-29 21:30N 39°34' E 002°38'0 0.0
2017-Oct-29 21:00N 39°34' E 002°38'0 0.0
2017-Oct-29 20:30N 39°34' E 002°38'0 0.0
2017-Oct-29 20:00N 39°34' E 002°38'0 0.0
2017-Oct-29 19:30N 39°34' E 002°38'0 0.0
2017-Oct-29 19:00N 39°34' E 002°38'0 0.0
2017-Oct-29 18:30N 39°34' E 002°38'0 0.0
2017-Oct-29 18:01N 39°34' E 002°38'0 0.0
2017-Oct-29 17:30N 39°34' E 002°38'0 0.0
2017-Oct-29 17:01N 39°34' E 002°38'0 0.0
2017-Oct-29 16:30N 39°34' E 002°38'0 0.0
2017-Oct-29 16:00N 39°34' E 002°38'0 0.0
2017-Oct-29 15:31N 39°34' E 002°38'0 0.0
2017-Oct-29 15:00N 39°34' E 002°38'0 0.0
2017-Oct-29 14:31N 39°34' E 002°38'0 0.0
2017-Oct-29 14:00N 39°34' E 002°38'0 0.0
2017-Oct-29 13:30N 39°34' E 002°38'0 0.0
2017-Oct-29 13:00N 39°34' E 002°38'0 0.0
2017-Oct-29 12:30N 39°34' E 002°38'0 0.0
2017-Oct-29 12:00N 39°34' E 002°38'0 0.0
2017-Oct-29 11:30N 39°34' E 002°38'0 0.0
2017-Oct-29 11:00N 39°34' E 002°38'0 0.0
2017-Oct-29 10:30N 39°34' E 002°38'0 0.0
2017-Oct-29 10:00N 39°34' E 002°38'0 0.0
2017-Oct-29 09:31N 39°34' E 002°38'0 0.0
2017-Oct-29 09:00N 39°34' E 002°38'0 0.0
2017-Oct-29 08:30N 39°34' E 002°38'0 0.0
2017-Oct-29 08:00N 39°34' E 002°38'0 0.0
2017-Oct-29 07:30N 39°34' E 002°38'0 0.0
2017-Oct-29 07:00N 39°34' E 002°38'0 0.0
2017-Oct-29 06:30N 39°34' E 002°38'0 0.0
2017-Oct-29 06:00N 39°34' E 002°38'0 0.0
2017-Oct-29 05:31N 39°34' E 002°38'0 0.0
2017-Oct-29 05:00N 39°34' E 002°38'0 0.0
2017-Oct-29 04:30N 39°34' E 002°38'0 0.0
2017-Oct-29 04:00N 39°34' E 002°38'0 0.0
2017-Oct-28 19:00N 39°34' E 002°38'0 0.0
2017-Oct-28 18:30N 39°34' E 002°38'0 0.0
2017-Oct-28 18:00N 39°34' E 002°38'0 0.0
2017-Oct-28 17:30N 39°34' E 002°38'0 0.0
2017-Oct-28 17:00N 39°34' E 002°38'0 0.0
2017-Oct-28 16:30N 39°34' E 002°38'0 0.0
2017-Oct-28 16:00N 39°34' E 002°38'0 0.0
2017-Oct-28 15:30N 39°34' E 002°38'0 0.0
2017-Oct-28 15:00N 39°34' E 002°38'0 0.0
2017-Oct-28 14:31N 39°34' E 002°38'0 0.0
2017-Oct-28 14:01N 39°34' E 002°38'0 0.0
2017-Oct-28 13:30N 39°34' E 002°38'0 0.0
2017-Oct-28 13:01N 39°34' E 002°38'0 0.0
2017-Oct-28 12:25N 39°34' E 002°38'0 0.0
2017-Oct-28 12:00N 39°34' E 002°38'0 0.0
2017-Oct-28 11:30N 39°34' E 002°38'0 0.0
2017-Oct-28 11:00N 39°34' E 002°38'0 0.0
2017-Oct-28 10:30N 39°34' E 002°38'0 0.0
2017-Oct-28 10:00N 39°34' E 002°38'0 0.0
2017-Oct-28 09:30N 39°34' E 002°38'0 0.0
2017-Oct-28 09:00N 39°34' E 002°38'0 0.0
2017-Oct-28 08:30N 39°34' E 002°38'0 0.0
2017-Oct-28 08:00N 39°34' E 002°38'0 0.0
2017-Oct-28 07:30N 39°34' E 002°38'0 0.0
2017-Oct-28 07:00N 39°34' E 002°38'0 0.0
2017-Oct-28 06:30N 39°34' E 002°38'0 0.0
2017-Oct-28 06:00N 39°34' E 002°38'0 0.0
2017-Oct-28 05:30N 39°34' E 002°38'0 0.0
2017-Oct-28 05:00N 39°34' E 002°38'0 0.0
2017-Oct-28 04:30N 39°34' E 002°38'0 0.0
2017-Oct-28 04:01N 39°34' E 002°38'0 0.0
2017-Oct-28 03:30N 39°34' E 002°38'0 0.0
2017-Oct-28 03:00N 39°34' E 002°38'0 0.0
2017-Oct-28 02:30N 39°34' E 002°38'0 0.0
2017-Oct-28 02:00N 39°34' E 002°38'0 0.0
2017-Oct-28 01:30N 39°34' E 002°38'0 0.0
2017-Oct-28 01:00N 39°34' E 002°38'0 0.0
2017-Oct-28 00:31N 39°34' E 002°38'0 0.0
2017-Oct-28 00:00N 39°34' E 002°38'0 0.0
2017-Oct-27 23:31N 39°34' E 002°38'0 0.0
2017-Oct-27 23:00N 39°34' E 002°38'0 0.0
2017-Oct-27 22:30N 39°34' E 002°38'0 0.0
2017-Oct-27 22:00N 39°34' E 002°38'0 0.0
2017-Oct-27 21:30N 39°34' E 002°38'0 0.0
2017-Oct-27 21:00N 39°34' E 002°38'0 0.0
2017-Oct-27 20:30N 39°34' E 002°38'0 0.0
2017-Oct-27 20:00N 39°34' E 002°38'0 0.0
2017-Oct-27 19:30N 39°34' E 002°38'0 0.0
2017-Oct-27 19:00N 39°34' E 002°38'0 0.0
2017-Oct-27 18:30N 39°34' E 002°38'0 0.0
2017-Oct-27 18:00N 39°34' E 002°38'0 0.0
2017-Oct-27 17:31N 39°34' E 002°38'0 0.0
2017-Oct-27 17:00N 39°34' E 002°38'0 0.0
2017-Oct-27 16:30N 39°34' E 002°38'0 0.0
2017-Oct-27 16:00N 39°34' E 002°38'0 0.0
2017-Oct-27 15:30N 39°34' E 002°38'0 0.0
2017-Oct-27 15:00N 39°34' E 002°38'0 0.0
2017-Oct-27 14:30N 39°34' E 002°38'0 0.0
2017-Oct-27 14:00N 39°34' E 002°38'0 0.0
2017-Oct-27 13:30N 39°34' E 002°38'0 0.0
2017-Oct-27 13:00N 39°34' E 002°38'0 0.0
2017-Oct-27 12:30N 39°34' E 002°38'0 0.0
2017-Oct-27 12:00N 39°34' E 002°38'0 0.0
2017-Oct-27 11:30N 39°34' E 002°38'0 0.0
2017-Oct-27 11:00N 39°34' E 002°38'0 0.0
2017-Oct-27 10:31N 39°34' E 002°38'0 0.0
2017-Oct-27 10:00N 39°34' E 002°38'0 0.0
2017-Oct-27 09:30N 39°34' E 002°38'0 0.0
2017-Oct-27 09:00N 39°34' E 002°38'0 0.0
2017-Oct-27 08:30N 39°34' E 002°38'0 0.0
2017-Oct-27 08:00N 39°34' E 002°38'0 0.0
2017-Oct-27 07:30N 39°34' E 002°38'0 0.0
2017-Oct-27 07:00N 39°34' E 002°38'0 0.0
2017-Oct-27 06:30N 39°34' E 002°38'0 0.0
2017-Oct-27 06:00N 39°34' E 002°38'0 0.0
2017-Oct-27 05:30N 39°34' E 002°38'0 0.0
2017-Oct-27 05:00N 39°34' E 002°38'0 0.0
2017-Oct-27 04:30N 39°34' E 002°38'0 0.0
2017-Oct-27 04:00N 39°34' E 002°38'0 0.0
2017-Oct-27 03:30N 39°34' E 002°38'0 0.0
2017-Oct-27 03:00N 39°34' E 002°38'0 0.0
2017-Oct-27 02:30N 39°34' E 002°38'  

Dump ship's entire track history